Time;durP1;ratioP1;P1;durP2;ratioP2;P2;SDS_P1;SDS_P2;PMS_P1;PMS_P2;Temp;Humidity;BMP_temperature;BMP_pressure;BME280_temperature;BME280_humidity;BME280_pressure;Samples;Min_cycle;Max_cycle;Signal;HPM_P1;HPM_P2
2023/03/01 00:01:12;;;;;;;30.27;14.73;;;0.10;77.70;;;;;;5057067;28;20212;-75
2023/03/01 00:03:37;;;;;;;28.10;14.48;;;0.10;77.70;;;;;;5047478;28;20191;-76
2023/03/01 00:06:04;;;;;;;31.87;15.50;;;0.10;77.70;;;;;;5057867;28;20208;-73
2023/03/01 00:08:30;;;;;;;34.55;15.30;;;0.20;77.60;;;;;;5061322;28;20204;-75
2023/03/01 00:11:07;;;;;;;30.00;14.95;;;0.10;77.70;;;;;;5061371;28;20214;-74
2023/03/01 00:13:34;;;;;;;29.10;13.77;;;0.10;77.70;;;;;;5031274;28;20180;-74
2023/03/01 00:16:03;;;;;;;33.50;15.70;;;0.10;77.80;;;;;;5053764;28;20243;-75
2023/03/01 00:18:28;;;;;;;29.98;14.07;;;0.10;77.80;;;;;;5060149;28;20228;-75
2023/03/01 00:20:57;;;;;;;33.93;15.87;;;0.10;77.80;;;;;;5055990;28;20199;-75
2023/03/01 00:23:23;;;;;;;31.13;14.90;;;0.00;77.80;;;;;;5049350;28;20528;-75
2023/03/01 00:25:50;;;;;;;27.70;14.13;;;0.00;77.80;;;;;;5049484;28;20234;-75
2023/03/01 00:28:19;;;;;;;29.83;15.25;;;0.00;77.80;;;;;;5047689;28;20208;-76
2023/03/01 00:30:45;;;;;;;32.35;16.65;;;0.00;78.00;;;;;;5045503;28;20185;-73
2023/03/01 00:33:10;;;;;;;34.40;14.90;;;0.00;78.00;;;;;;5033636;28;20214;-76
2023/03/01 00:35:36;;;;;;;33.93;15.27;;;0.00;78.00;;;;;;5051696;28;20188;-75
2023/03/01 00:38:02;;;;;;;28.37;14.33;;;-0.10;77.80;;;;;;5051244;28;20208;-75
2023/03/01 00:40:29;;;;;;;29.20;15.25;;;-0.10;78.00;;;;;;5043931;28;20273;-75
2023/03/01 00:42:54;;;;;;;28.98;15.27;;;-0.10;78.10;;;;;;5051968;28;20365;-75
2023/03/01 00:45:20;;;;;;;26.77;13.60;;;-0.10;78.10;;;;;;5052406;28;20682;-76
2023/03/01 00:47:48;;;;;;;33.83;15.32;;;-0.20;78.10;;;;;;5047941;28;20231;-74
2023/03/01 00:50:13;;;;;;;34.95;15.27;;;-0.20;78.30;;;;;;5051256;28;20280;-75
2023/03/01 00:52:39;;;;;;;33.13;15.10;;;-0.20;78.30;;;;;;5051635;28;20683;-76
2023/03/01 00:55:05;;;;;;;31.27;15.03;;;-0.20;78.40;;;;;;5050325;28;20603;-75
2023/03/01 00:57:31;;;;;;;30.85;14.52;;;-0.30;78.40;;;;;;5049272;28;20245;-74
2023/03/01 00:59:56;;;;;;;37.37;16.07;;;-0.30;78.60;;;;;;5051137;28;20184;-76
2023/03/01 01:02:22;;;;;;;30.60;14.83;;;-0.30;78.60;;;;;;5051769;28;20188;-76
2023/03/01 01:04:48;;;;;;;32.77;15.53;;;-0.30;79.00;;;;;;5048921;28;20208;-74
2023/03/01 01:07:15;;;;;;;33.97;15.30;;;-0.30;78.70;;;;;;5048192;28;20549;-73
2023/03/01 01:09:40;;;;;;;31.92;14.57;;;-0.40;79.00;;;;;;5047321;28;20686;-73
2023/03/01 01:12:06;;;;;;;32.40;15.37;;;-0.40;79.00;;;;;;5048828;28;20207;-76
2023/03/01 01:14:32;;;;;;;32.60;14.73;;;-0.40;79.00;;;;;;5047787;28;20192;-75
2023/03/01 01:16:58;;;;;;;32.53;14.30;;;-0.50;79.00;;;;;;5033601;28;20200;-75
2023/03/01 01:19:24;;;;;;;38.37;15.43;;;-0.50;79.20;;;;;;5035423;28;20216;-73
2023/03/01 01:21:50;;;;;;;31.63;15.20;;;-0.50;79.30;;;;;;5046943;28;20414;-75
2023/03/01 01:24:17;;;;;;;36.10;16.13;;;-0.40;79.50;;;;;;5050778;28;20674;-73
2023/03/01 01:26:43;;;;;;;37.13;15.70;;;-0.40;79.30;;;;;;5047837;28;20595;-73
2023/03/01 01:29:09;;;;;;;32.70;15.43;;;-0.40;79.30;;;;;;5052418;28;20605;-76
2023/03/01 01:31:37;;;;;;;33.53;15.27;;;-0.50;79.50;;;;;;5033341;28;20574;-75
2023/03/01 01:34:04;;;;;;;30.00;14.27;;;-0.40;79.50;;;;;;5050205;28;20192;-75
2023/03/01 01:36:31;;;;;;;31.95;15.80;;;-0.40;79.30;;;;;;5033945;28;20299;-73
2023/03/01 01:38:57;;;;;;;35.03;17.02;;;-0.30;78.70;;;;;;5054280;28;20220;-73
2023/03/01 01:41:23;;;;;;;29.30;14.80;;;-0.20;78.10;;;;;;5054063;28;20185;-75
2023/03/01 01:44:13;;;;;;;41.90;17.38;;;-0.20;77.80;;;;;;5033775;28;20731;-74
2023/03/01 01:47:02;;;;;;;33.03;15.45;;;-0.20;77.70;;;;;;5043796;28;20212;-75
2023/03/01 01:49:53;;;;;;;31.92;15.57;;;-0.20;77.70;;;;;;5036008;28;20256;-76
2023/03/01 01:52:25;;;;;;;30.60;13.55;;;-0.10;77.60;;;;;;5052835;28;20616;-75
2023/03/01 01:55:21;;;;;;;29.02;14.43;;;-0.10;77.40;;;;;;5046119;28;20660;-74
2023/03/01 01:57:53;;;;;;;35.78;16.30;;;-0.20;77.60;;;;;;5047173;28;20226;-73
2023/03/01 02:00:24;;;;;;;31.45;15.25;;;-0.20;77.80;;;;;;5047921;28;20583;-74
2023/03/01 02:02:56;;;;;;;28.20;15.57;;;-0.10;78.10;;;;;;5049031;28;20542;-74
2023/03/01 02:05:45;;;;;;;31.20;15.45;;;-0.10;78.10;;;;;;5049317;28;20558;-72
2023/03/01 02:08:13;;;;;;;31.55;14.80;;;0.00;78.30;;;;;;5048066;28;20185;-76
2023/03/01 02:10:39;;;;;;;35.28;15.95;;;0.00;78.00;;;;;;5056601;28;20181;-76
2023/03/01 02:13:04;;;;;;;28.70;15.07;;;0.10;78.00;;;;;;5028837;28;20200;-74
2023/03/01 02:15:35;;;;;;;31.13;15.50;;;0.10;77.70;;;;;;5054413;28;20544;-76
2023/03/01 02:18:03;;;;;;;29.70;15.02;;;0.10;77.80;;;;;;5052391;28;20216;-76
2023/03/01 02:20:45;;;;;;;27.88;14.85;;;0.20;77.60;;;;;;5055341;28;20653;-76
2023/03/01 02:23:10;;;;;;;30.30;14.68;;;0.30;77.40;;;;;;5038866;28;20184;-75
2023/03/01 02:25:45;;;;;;;31.00;15.77;;;0.30;77.30;;;;;;5054735;28;20212;-73
2023/03/01 02:28:15;;;;;;;35.50;14.95;;;0.30;77.30;;;;;;5049128;28;20189;-74
2023/03/01 02:31:41;;;;;;;32.45;15.32;;;0.40;76.80;;;;;;5054321;28;20553;-73
2023/03/01 02:33:33;;;;;;;25.85;14.68;;;0.30;76.20;;;;;;5053188;28;20187;-73
2023/03/01 02:36:01;;;;;;;35.30;15.73;;;0.30;76.40;;;;;;5052927;28;20196;-76
2023/03/01 02:38:28;;;;;;;35.03;16.35;;;0.30;76.40;;;;;;5051634;28;20223;-73
2023/03/01 02:40:56;;;;;;;35.05;14.98;;;0.40;76.40;;;;;;5054604;28;20261;-73
2023/03/01 02:43:27;;;;;;;27.35;14.57;;;0.30;76.20;;;;;;5051370;28;20195;-75
2023/03/01 02:45:57;;;;;;;36.65;15.90;;;0.20;76.40;;;;;;5049513;28;20204;-74
2023/03/01 02:48:23;;;;;;;28.08;14.68;;;0.20;76.70;;;;;;5030016;28;20620;-73
2023/03/01 02:51:00;;;;;;;30.87;15.70;;;0.20;76.70;;;;;;5054750;28;20223;-74
2023/03/01 02:53:39;;;;;;;30.00;16.05;;;0.30;76.80;;;;;;5049583;28;20192;-72
2023/03/01 02:56:05;;;;;;;41.65;16.63;;;0.30;77.00;;;;;;5042041;28;20611;-74
2023/03/01 02:58:31;;;;;;;33.40;15.57;;;0.40;76.80;;;;;;5048022;28;20204;-75
2023/03/01 03:00:56;;;;;;;36.73;16.87;;;0.40;76.50;;;;;;5051971;28;20179;-73
2023/03/01 03:03:22;;;;;;;35.03;16.60;;;0.40;76.50;;;;;;5057262;28;20218;-75
2023/03/01 03:05:48;;;;;;;32.57;15.63;;;0.30;76.40;;;;;;5047485;28;20200;-76
2023/03/01 03:08:23;;;;;;;39.50;16.92;;;0.20;76.50;;;;;;5056415;28;20443;-74
2023/03/01 03:10:49;;;;;;;32.63;14.98;;;0.20;76.70;;;;;;5054094;28;20176;-76
2023/03/01 03:13:15;;;;;;;32.30;15.40;;;0.20;77.00;;;;;;5036433;28;20185;-76
2023/03/01 03:15:43;;;;;;;35.05;16.00;;;0.20;76.80;;;;;;5053106;28;20212;-76
2023/03/01 03:18:12;;;;;;;40.78;16.85;;;0.20;76.80;;;;;;5052951;28;20282;-76
2023/03/01 03:20:40;;;;;;;35.00;17.05;;;0.20;76.80;;;;;;5049207;28;20177;-75
2023/03/01 03:23:06;;;;;;;38.40;16.02;;;0.30;76.80;;;;;;5051034;28;20586;-72
2023/03/01 03:25:31;;;;;;;37.83;16.80;;;0.30;76.80;;;;;;5047835;28;20180;-73
2023/03/01 03:27:58;;;;;;;36.63;15.97;;;0.30;77.00;;;;;;5048232;28;20216;-73
2023/03/01 03:30:26;;;;;;;37.35;18.08;;;0.50;77.00;;;;;;5050578;28;20200;-73
2023/03/01 03:32:52;;;;;;;32.30;15.20;;;0.50;76.50;;;;;;5048019;28;20595;-73
2023/03/01 03:35:24;;;;;;;35.33;16.20;;;0.50;76.70;;;;;;5032265;28;20189;-74
2023/03/01 03:38:02;;;;;;;36.72;16.33;;;0.60;76.40;;;;;;5045837;28;20205;-74
2023/03/01 03:40:32;;;;;;;33.03;16.83;;;0.60;76.40;;;;;;5031458;28;20603;-74
2023/03/01 03:42:58;;;;;;;37.15;16.48;;;0.70;76.40;;;;;;5030753;28;20177;-73
2023/03/01 03:45:23;;;;;;;38.33;17.03;;;0.70;76.40;;;;;;5043242;28;20189;-75
2023/03/01 03:47:49;;;;;;;43.90;18.13;;;0.80;76.50;;;;;;5039699;28;20212;-74
2023/03/01 03:50:16;;;;;;;37.30;18.33;;;0.80;76.20;;;;;;5050050;28;20243;-74
2023/03/01 03:52:42;;;;;;;37.03;16.42;;;0.80;76.20;;;;;;5044398;28;20208;-75
2023/03/01 03:55:10;;;;;;;41.63;17.63;;;0.80;76.20;;;;;;5028357;28;20189;-73
2023/03/01 03:57:40;;;;;;;37.78;16.92;;;0.80;75.90;;;;;;5045471;28;20220;-74
2023/03/01 04:00:13;;;;;;;43.20;17.42;;;0.80;75.90;;;;;;5049895;28;20203;-75
2023/03/01 04:02:43;;;;;;;31.83;17.23;;;0.80;76.10;;;;;;5032844;28;20177;-73
2023/03/01 04:05:11;;;;;;;36.67;17.95;;;0.60;75.90;;;;;;5047023;28;20169;-76
2023/03/01 04:07:37;;;;;;;37.17;17.77;;;0.70;76.10;;;;;;5044783;28;20294;-75
2023/03/01 04:10:04;;;;;;;33.60;16.45;;;0.70;76.10;;;;;;5050587;28;20212;-76
2023/03/01 04:12:30;;;;;;;36.33;17.13;;;0.60;76.10;;;;;;5045672;28;20543;-75
2023/03/01 04:14:56;;;;;;;38.37;17.00;;;0.60;76.40;;;;;;5048804;28;20184;-72
2023/03/01 04:17:21;;;;;;;36.93;16.60;;;0.50;76.50;;;;;;5053296;28;20466;-73
2023/03/01 04:19:48;;;;;;;28.70;16.27;;;0.60;76.50;;;;;;5052325;28;20226;-76
2023/03/01 04:22:18;;;;;;;37.42;17.98;;;0.60;76.40;;;;;;5048951;28;20181;-73
2023/03/01 04:24:44;;;;;;;32.08;15.63;;;0.60;76.40;;;;;;5047662;28;20234;-75
2023/03/01 04:27:11;;;;;;;37.17;17.23;;;0.50;76.70;;;;;;5048315;28;20254;-74
2023/03/01 04:29:37;;;;;;;32.72;18.20;;;0.50;76.80;;;;;;5044735;28;20227;-75
2023/03/01 04:32:03;;;;;;;42.73;17.60;;;0.60;76.80;;;;;;5051087;28;20638;-75
2023/03/01 04:34:29;;;;;;;34.20;16.70;;;0.70;76.50;;;;;;5049979;28;20423;-74
2023/03/01 04:36:54;;;;;;;31.95;16.60;;;0.70;76.50;;;;;;5043572;28;21299;-74
2023/03/01 04:39:20;;;;;;;41.63;17.50;;;0.80;76.40;;;;;;5049730;28;20234;-74
2023/03/01 04:41:46;;;;;;;38.07;18.10;;;0.80;76.40;;;;;;5048549;28;20193;-75
2023/03/01 04:44:12;;;;;;;35.45;15.57;;;0.70;76.40;;;;;;5049303;28;20185;-73
2023/03/01 04:46:38;;;;;;;41.17;17.97;;;0.90;76.50;;;;;;5045262;28;20211;-75
2023/03/01 04:49:03;;;;;;;32.67;17.67;;;0.90;76.40;;;;;;5051173;28;20188;-74
2023/03/01 04:51:29;;;;;;;36.37;16.93;;;1.00;76.40;;;;;;5046918;28;20201;-75
2023/03/01 04:53:55;;;;;;;35.53;16.27;;;1.00;76.10;;;;;;5044208;28;20188;-76
2023/03/01 04:56:22;;;;;;;29.60;15.50;;;1.00;75.90;;;;;;5043488;28;20255;-74
2023/03/01 04:58:49;;;;;;;38.40;16.42;;;1.10;75.90;;;;;;5047729;28;20215;-74
2023/03/01 05:01:17;;;;;;;36.85;16.92;;;1.10;75.70;;;;;;5046611;28;20177;-75
2023/03/01 05:03:45;;;;;;;36.90;15.90;;;1.10;75.50;;;;;;5051071;28;20200;-73
2023/03/01 05:06:11;;;;;;;37.15;17.55;;;1.10;75.70;;;;;;5048531;28;20687;-74
2023/03/01 05:08:41;;;;;;;45.45;18.38;;;1.10;75.70;;;;;;5046671;28;20197;-75
2023/03/01 05:11:08;;;;;;;38.22;16.70;;;1.10;75.90;;;;;;5048171;28;20193;-75
2023/03/01 05:13:35;;;;;;;32.88;16.50;;;1.20;75.90;;;;;;5051450;28;20268;-73
2023/03/01 05:16:02;;;;;;;37.15;17.20;;;1.30;75.80;;;;;;5039802;28;20205;-74
2023/03/01 05:18:30;;;;;;;42.25;18.95;;;1.30;75.70;;;;;;5049762;28;20247;-75
2023/03/01 05:21:01;;;;;;;41.60;17.80;;;1.30;75.50;;;;;;5050921;28;20580;-75
2023/03/01 05:23:27;;;;;;;38.78;17.95;;;1.20;75.50;;;;;;5050904;28;20173;-75
2023/03/01 05:25:52;;;;;;;37.20;17.10;;;1.20;75.70;;;;;;5039915;28;20235;-75
2023/03/01 05:28:20;;;;;;;38.40;17.87;;;1.10;75.70;;;;;;5051043;28;20184;-74
2023/03/01 05:30:46;;;;;;;42.28;18.10;;;1.10;75.90;;;;;;5049991;28;20189;-74
2023/03/01 05:33:15;;;;;;;38.35;17.50;;;1.10;76.10;;;;;;5051944;28;20226;-74
2023/03/01 05:35:44;;;;;;;34.38;16.92;;;1.10;76.10;;;;;;5052963;28;20557;-75
2023/03/01 05:38:14;;;;;;;37.42;16.60;;;1.20;75.80;;;;;;5053950;28;20549;-76
2023/03/01 05:40:45;;;;;;;40.25;17.85;;;1.20;75.80;;;;;;5054458;28;20573;-74
2023/03/01 05:43:13;;;;;;;39.33;19.70;;;1.20;75.80;;;;;;5053533;28;20187;-75
2023/03/01 05:45:40;;;;;;;35.50;18.17;;;1.20;75.70;;;;;;5052201;28;20267;-74
2023/03/01 05:48:06;;;;;;;32.90;16.52;;;1.20;75.70;;;;;;5052459;28;20196;-74
2023/03/01 05:50:35;;;;;;;40.92;18.67;;;1.20;75.80;;;;;;5055270;28;20177;-74
2023/03/01 05:53:08;;;;;;;41.25;19.38;;;1.20;75.80;;;;;;5052006;28;20216;-76
2023/03/01 05:55:35;;;;;;;37.03;16.85;;;1.20;75.90;;;;;;5053487;28;20188;-73
2023/03/01 05:58:03;;;;;;;35.63;16.02;;;1.30;75.80;;;;;;5047159;28;20213;-73
2023/03/01 06:00:30;;;;;;;40.00;18.35;;;1.20;75.50;;;;;;5049095;28;20173;-76
2023/03/01 06:02:56;;;;;;;42.55;18.85;;;1.20;75.50;;;;;;5049277;28;20185;-76
2023/03/01 06:05:22;;;;;;;40.25;17.77;;;1.10;75.70;;;;;;5053355;28;20195;-74
2023/03/01 06:07:49;;;;;;;35.17;16.37;;;1.10;75.90;;;;;;5046860;28;20213;-76
2023/03/01 06:10:16;;;;;;;39.30;17.48;;;1.20;75.80;;;;;;5051597;28;20929;-76
2023/03/01 06:12:43;;;;;;;43.42;18.38;;;1.20;75.80;;;;;;5053150;28;20184;-74
2023/03/01 06:15:12;;;;;;;39.67;19.02;;;1.20;75.70;;;;;;5033616;28;20207;-73
2023/03/01 06:17:40;;;;;;;42.17;18.15;;;1.10;75.70;;;;;;5046902;28;20220;-76
2023/03/01 06:20:10;;;;;;;34.05;16.70;;;1.00;76.10;;;;;;5052755;28;20177;-73
2023/03/01 06:22:35;;;;;;;41.65;17.65;;;1.00;76.20;;;;;;5051055;28;20302;-74
2023/03/01 06:25:01;;;;;;;41.47;17.63;;;1.00;76.40;;;;;;5052030;28;20650;-76
2023/03/01 06:27:27;;;;;;;42.13;18.67;;;1.10;76.20;;;;;;5044881;28;20205;-75
2023/03/01 06:29:52;;;;;;;37.80;17.47;;;1.10;76.10;;;;;;5050895;28;20230;-75
2023/03/01 06:32:18;;;;;;;32.70;17.13;;;1.20;75.90;;;;;;5046738;28;20199;-76
2023/03/01 06:34:43;;;;;;;44.90;16.80;;;1.20;75.80;;;;;;5051639;28;20545;-75
2023/03/01 06:37:09;;;;;;;38.87;16.97;;;1.10;75.70;;;;;;5047959;28;20615;-76
2023/03/01 06:39:35;;;;;;;34.70;17.50;;;1.10;76.10;;;;;;5052422;28;20825;-73
2023/03/01 06:42:00;;;;;;;40.33;17.77;;;1.20;76.20;;;;;;5051677;28;20184;-74
2023/03/01 06:44:26;;;;;;;49.07;19.07;;;1.20;76.10;;;;;;5034049;28;20231;-74
2023/03/01 06:46:52;;;;;;;45.30;19.63;;;1.20;75.70;;;;;;5045883;28;20311;-75
2023/03/01 06:49:17;;;;;;;36.93;18.47;;;1.20;75.90;;;;;;5050639;28;20423;-75
2023/03/01 06:51:44;;;;;;;39.30;17.83;;;1.10;75.90;;;;;;5044298;28;20181;-75
2023/03/01 06:54:09;;;;;;;39.40;17.60;;;1.10;75.90;;;;;;5051871;28;20190;-75
2023/03/01 06:56:35;;;;;;;38.13;16.83;;;1.10;76.20;;;;;;5043824;28;20216;-75
2023/03/01 06:59:02;;;;;;;33.60;16.40;;;1.20;75.90;;;;;;5048084;28;20513;-76
2023/03/01 07:01:28;;;;;;;39.95;17.63;;;1.20;75.90;;;;;;5051549;28;20419;-74
2023/03/01 07:03:54;;;;;;;39.33;19.63;;;1.10;75.90;;;;;;5047061;28;20188;-76
2023/03/01 07:06:20;;;;;;;48.20;18.80;;;1.10;75.70;;;;;;5044627;28;20206;-75
2023/03/01 07:08:46;;;;;;;39.53;18.83;;;1.00;76.10;;;;;;5052253;28;20200;-76
2023/03/01 07:11:12;;;;;;;37.57;17.17;;;1.00;76.10;;;;;;5051855;28;20177;-76
2023/03/01 07:13:37;;;;;;;39.30;18.03;;;1.00;76.20;;;;;;5050330;28;20268;-76
2023/03/01 07:16:03;;;;;;;40.17;18.60;;;1.00;76.10;;;;;;5045757;28;20209;-75
2023/03/01 07:18:28;;;;;;;39.13;19.50;;;0.90;76.10;;;;;;5049922;28;20223;-76
2023/03/01 07:20:54;;;;;;;39.63;18.30;;;0.80;76.20;;;;;;5052217;28;20222;-76
2023/03/01 07:23:20;;;;;;;50.67;19.63;;;0.80;76.40;;;;;;5054382;28;20177;-74
2023/03/01 07:25:52;;;;;;;37.23;17.33;;;0.80;76.50;;;;;;5046451;28;20929;-76
2023/03/01 07:28:18;;;;;;;43.25;19.98;;;0.80;76.40;;;;;;5046964;28;20626;-75
2023/03/01 07:30:44;;;;;;;37.97;17.30;;;0.80;76.50;;;;;;5045824;28;20299;-75
2023/03/01 07:33:10;;;;;;;39.90;17.92;;;0.90;76.50;;;;;;5046435;28;20234;-74
2023/03/01 07:35:35;;;;;;;40.50;18.87;;;0.90;76.40;;;;;;5048272;28;20196;-75
2023/03/01 07:38:01;;;;;;;40.00;18.00;;;0.90;76.40;;;;;;5046316;28;20200;-76
2023/03/01 07:40:27;;;;;;;44.47;19.77;;;0.90;76.20;;;;;;5029154;28;20249;-74
2023/03/01 07:42:58;;;;;;;37.03;18.40;;;0.90;76.20;;;;;;5051282;28;20188;-76
2023/03/01 07:45:28;;;;;;;37.15;18.15;;;0.90;76.20;;;;;;5051022;28;20204;-75
2023/03/01 07:47:54;;;;;;;37.08;18.65;;;0.90;76.20;;;;;;5030906;28;20273;-75
2023/03/01 07:50:21;;;;;;;49.78;21.20;;;0.90;76.20;;;;;;5049258;28;20762;-76
2023/03/01 07:52:47;;;;;;;37.42;18.30;;;0.90;76.20;;;;;;5045020;28;20271;-74
2023/03/01 07:55:14;;;;;;;43.72;18.55;;;0.90;76.40;;;;;;5032868;28;20207;-75
2023/03/01 07:57:39;;;;;;;40.70;18.27;;;1.00;76.40;;;;;;5045628;28;20231;-74
2023/03/01 08:00:06;;;;;;;41.90;19.13;;;1.00;76.20;;;;;;5050552;28;20482;-75
2023/03/01 08:02:31;;;;;;;40.53;18.00;;;1.00;76.10;;;;;;5030563;28;20220;-75
2023/03/01 08:04:57;;;;;;;42.40;18.50;;;1.00;75.90;;;;;;5050218;28;20450;-75
2023/03/01 08:07:23;;;;;;;41.20;18.93;;;0.90;76.10;;;;;;5046655;28;20243;-75
2023/03/01 08:09:48;;;;;;;44.07;18.03;;;1.00;76.20;;;;;;5048341;28;20188;-75
2023/03/01 08:12:16;;;;;;;48.37;19.70;;;0.90;76.10;;;;;;5046398;28;20651;-75
2023/03/01 08:14:41;;;;;;;40.42;18.73;;;0.90;76.20;;;;;;5046744;28;20247;-75
2023/03/01 08:17:07;;;;;;;43.50;18.83;;;1.00;76.20;;;;;;5046019;28;20314;-75
2023/03/01 08:19:34;;;;;;;36.57;18.70;;;1.10;76.20;;;;;;5028955;28;20298;-75
2023/03/01 08:22:01;;;;;;;38.78;18.85;;;1.10;75.90;;;;;;5044644;28;20264;-75
2023/03/01 08:24:27;;;;;;;48.30;19.92;;;1.20;75.70;;;;;;5032158;28;20176;-74
2023/03/01 08:26:53;;;;;;;44.10;20.37;;;1.20;75.70;;;;;;5041455;28;20214;-75
2023/03/01 08:29:19;;;;;;;46.23;20.20;;;1.20;75.80;;;;;;5045497;28;20429;-76
2023/03/01 08:31:44;;;;;;;42.23;18.37;;;1.30;75.70;;;;;;5047916;28;20430;-74
2023/03/01 08:34:13;;;;;;;38.40;18.90;;;1.30;75.50;;;;;;5045747;28;20181;-76
2023/03/01 08:36:41;;;;;;;42.83;18.97;;;1.30;75.40;;;;;;5043399;28;20642;-75
2023/03/01 08:39:09;;;;;;;39.35;18.70;;;1.40;75.40;;;;;;5046904;28;21000;-75
2023/03/01 08:41:35;;;;;;;37.30;17.92;;;1.40;75.20;;;;;;5047111;28;20181;-75
2023/03/01 08:44:00;;;;;;;43.10;18.20;;;1.40;75.20;;;;;;5047853;28;20647;-74
2023/03/01 08:46:32;;;;;;;41.60;18.77;;;1.40;75.10;;;;;;5040209;28;20580;-74
2023/03/01 08:48:58;;;;;;;43.75;19.60;;;1.40;75.40;;;;;;5044513;28;20438;-75
2023/03/01 08:51:25;;;;;;;38.40;17.00;;;1.40;75.20;;;;;;5050271;28;20188;-75
2023/03/01 08:53:51;;;;;;;45.08;18.88;;;1.30;74.90;;;;;;5049558;28;20189;-76
2023/03/01 08:56:18;;;;;;;41.90;19.33;;;1.30;75.40;;;;;;5028570;28;20261;-74
2023/03/01 08:58:46;;;;;;;43.83;19.73;;;1.40;75.20;;;;;;5049516;28;20219;-75
2023/03/01 09:01:14;;;;;;;41.38;19.10;;;1.50;75.20;;;;;;5046566;28;20570;-76
2023/03/01 09:03:40;;;;;;;38.88;20.20;;;1.60;74.80;;;;;;5049504;28;20589;-74
2023/03/01 09:06:07;;;;;;;48.43;19.17;;;1.70;74.80;;;;;;5048528;28;20205;-75
2023/03/01 09:08:41;;;;;;;41.28;18.67;;;1.70;74.30;;;;;;5051763;28;20411;-76
2023/03/01 09:11:09;;;;;;;44.80;19.02;;;1.70;74.30;;;;;;5050679;28;20191;-76
2023/03/01 09:13:35;;;;;;;40.50;19.02;;;1.80;74.80;;;;;;5049873;28;20196;-76
2023/03/01 09:16:02;;;;;;;40.43;19.23;;;1.90;74.90;;;;;;5047052;28;20223;-74
2023/03/01 09:18:28;;;;;;;41.42;20.08;;;2.00;74.00;;;;;;5052895;28;20659;-75
2023/03/01 09:21:11;;;;;;;37.80;18.83;;;2.20;74.00;;;;;;5044346;28;20200;-76
2023/03/01 09:23:42;;;;;;;34.58;18.55;;;2.20;73.50;;;;;;5049664;28;20188;-74
2023/03/01 09:26:20;;;;;;;46.83;20.00;;;2.20;73.30;;;;;;5030245;28;20208;-77
2023/03/01 09:28:47;;;;;;;44.23;20.27;;;2.30;73.50;;;;;;5049756;28;20794;-76
2023/03/01 09:31:14;;;;;;;45.30;18.02;;;2.40;73.00;;;;;;5053532;28;20977;-75
2023/03/01 09:33:41;;;;;;;39.35;18.20;;;2.40;73.20;;;;;;5052488;28;20251;-74
2023/03/01 09:36:11;;;;;;;38.40;18.90;;;2.50;72.70;;;;;;5051241;28;20204;-75
2023/03/01 09:38:37;;;;;;;53.50;19.70;;;2.60;72.70;;;;;;5045966;28;20830;-75
2023/03/01 09:41:09;;;;;;;41.63;19.27;;;2.70;72.90;;;;;;5051250;28;20431;-74
2023/03/01 09:43:45;;;;;;;43.40;19.83;;;2.80;72.40;;;;;;5051121;28;20553;-74
2023/03/01 09:46:16;;;;;;;42.67;19.87;;;3.00;71.60;;;;;;5050461;28;20535;-74
2023/03/01 09:49:05;;;;;;;38.77;19.40;;;3.00;71.60;;;;;;5053591;28;20422;-74
2023/03/01 09:51:34;;;;;;;48.80;20.23;;;3.10;71.30;;;;;;5050858;28;20414;-75
2023/03/01 09:54:02;;;;;;;45.63;19.27;;;3.10;70.50;;;;;;5055138;28;20415;-74
2023/03/01 09:56:38;;;;;;;44.27;19.10;;;3.20;70.40;;;;;;5048778;28;20458;-75
2023/03/01 09:59:26;;;;;;;37.37;18.13;;;3.20;70.40;;;;;;5049167;28;20466;-74
2023/03/01 10:01:57;;;;;;;37.30;17.83;;;3.30;69.80;;;;;;5049430;28;20458;-75
2023/03/01 10:04:40;;;;;;;42.63;18.33;;;3.40;69.40;;;;;;5046900;28;20420;-74
2023/03/01 10:07:21;;;;;;;37.20;17.33;;;3.40;68.60;;;;;;5045056;28;20458;-74
2023/03/01 10:09:47;;;;;;;42.37;19.73;;;3.40;68.30;;;;;;5045355;28;20941;-74
2023/03/01 10:12:32;;;;;;;41.90;18.93;;;3.50;68.20;;;;;;5026802;28;21084;-75
2023/03/01 10:15:11;;;;;;;39.13;19.20;;;3.60;67.90;;;;;;5046060;28;20502;-74
2023/03/01 10:17:41;;;;;;;36.87;17.37;;;3.60;67.70;;;;;;5042776;28;20516;-73
2023/03/01 10:20:23;;;;;;;36.07;16.87;;;3.70;67.60;;;;;;5046436;28;20431;-75
2023/03/01 10:22:52;;;;;;;32.90;16.77;;;3.70;67.20;;;;;;5047376;28;20415;-74
2023/03/01 10:25:47;;;;;;;39.27;18.67;;;3.70;67.60;;;;;;5052335;28;20537;-75
2023/03/01 10:28:25;;;;;;;34.63;16.57;;;3.80;67.20;;;;;;5041079;28;20438;-74
2023/03/01 10:30:51;;;;;;;37.80;17.30;;;3.80;67.30;;;;;;5051806;28;20468;-74
2023/03/01 10:33:39;;;;;;;32.27;16.40;;;3.90;67.00;;;;;;5039225;28;20510;-74
2023/03/01 10:36:05;;;;;;;32.93;16.70;;;4.00;66.70;;;;;;5046194;28;20542;-73
2023/03/01 10:38:53;;;;;;;34.20;17.33;;;4.10;66.10;;;;;;5049374;28;20826;-75
2023/03/01 10:41:20;;;;;;;34.83;17.43;;;4.10;66.30;;;;;;5031830;28;20972;-73
2023/03/01 10:43:57;;;;;;;34.77;16.97;;;4.30;66.30;;;;;;5051358;28;20506;-75
2023/03/01 10:46:33;;;;;;;34.70;16.23;;;4.40;65.40;;;;;;5047286;28;20455;-73
2023/03/01 10:49:19;;;;;;;32.60;16.37;;;4.60;64.80;;;;;;5053768;28;20423;-75
2023/03/01 10:51:50;;;;;;;34.63;16.33;;;4.80;64.10;;;;;;5048761;28;20495;-75
2023/03/01 10:54:19;;;;;;;29.73;15.73;;;5.00;63.20;;;;;;5031462;28;20437;-75
2023/03/01 10:57:00;;;;;;;34.80;16.27;;;5.40;62.30;;;;;;5042576;28;20462;-75
2023/03/01 10:59:36;;;;;;;32.53;16.70;;;5.80;61.20;;;;;;5045761;28;20482;-74
2023/03/01 11:02:21;;;;;;;33.93;16.60;;;6.10;59.90;;;;;;5050367;28;20419;-75
2023/03/01 11:05:23;;;;;;;36.33;17.47;;;6.30;58.70;;;;;;5051575;28;20411;-75
2023/03/01 11:07:56;;;;;;;32.00;17.27;;;6.60;58.50;;;;;;5040218;28;20459;-76
2023/03/01 11:10:31;;;;;;;33.00;15.63;;;6.80;57.20;;;;;;5051274;28;20414;-75
2023/03/01 11:13:15;;;;;;;34.83;17.30;;;6.90;56.50;;;;;;5028920;28;20422;-75
2023/03/01 11:15:41;;;;;;;35.10;15.97;;;7.10;56.60;;;;;;5049824;28;20425;-75
2023/03/01 11:18:19;;;;;;;37.23;15.70;;;7.10;55.80;;;;;;5047101;28;20520;-75
2023/03/01 11:20:45;;;;;;;33.43;15.43;;;7.00;56.50;;;;;;5050378;28;20472;-74
2023/03/01 11:23:15;;;;;;;29.00;15.33;;;7.20;56.10;;;;;;5049336;28;20427;-75
2023/03/01 11:25:54;;;;;;;33.23;16.73;;;7.50;56.00;;;;;;5050166;28;20281;-74
2023/03/01 11:28:22;;;;;;;34.20;16.60;;;7.90;54.00;;;;;;5046576;28;20414;-75
2023/03/01 11:30:55;;;;;;;34.83;15.70;;;7.90;53.70;;;;;;5046688;28;20767;-75
2023/03/01 11:33:42;;;;;;;35.27;15.97;;;7.60;54.10;;;;;;5045379;28;20497;-73
2023/03/01 11:36:34;;;;;;;35.60;17.13;;;7.30;55.20;;;;;;5043687;28;20543;-75
2023/03/01 11:39:52;;;;;;;32.83;15.80;;;7.30;55.20;;;;;;5048159;28;20553;-76
2023/03/01 11:42:46;;;;;;;36.43;17.20;;;7.30;55.70;;;;;;5006921;28;20429;-74
2023/03/01 11:45:12;;;;;;;32.43;16.30;;;7.30;55.40;;;;;;5048199;28;20407;-75
2023/03/01 11:48:03;;;;;;;29.93;16.53;;;7.30;55.30;;;;;;5046506;28;20454;-75
2023/03/01 11:50:48;;;;;;;33.27;16.80;;;7.40;55.40;;;;;;5046940;28;20465;-75
2023/03/01 11:53:30;;;;;;;35.37;17.13;;;7.40;55.20;;;;;;5044326;28;20507;-75
2023/03/01 11:56:06;;;;;;;29.90;15.93;;;7.40;55.20;;;;;;5039225;28;20454;-77
2023/03/01 11:58:52;;;;;;;43.47;17.97;;;7.70;54.80;;;;;;5029549;28;21000;-76
2023/03/01 12:01:26;;;;;;;32.53;16.60;;;7.90;54.50;;;;;;5051626;28;20791;-76
2023/03/01 12:04:24;;;;;;;30.40;15.53;;;8.20;53.70;;;;;;5033596;28;20425;-75
2023/03/01 12:06:57;;;;;;;42.03;17.80;;;8.30;53.20;;;;;;5048172;28;20988;-76
2023/03/01 12:09:41;;;;;;;32.60;16.57;;;8.50;52.50;;;;;;5051897;28;20463;-75
2023/03/01 12:12:17;;;;;;;33.40;15.87;;;8.50;52.60;;;;;;5051099;28;20787;-76
2023/03/01 12:14:52;;;;;;;33.80;16.50;;;8.80;52.40;;;;;;5050057;28;20422;-76
2023/03/01 12:17:49;;;;;;;31.50;16.97;;;9.00;51.40;;;;;;5043310;28;20464;-77
2023/03/01 12:20:20;;;;;;;30.13;15.63;;;9.00;51.40;;;;;;5023128;28;20429;-75
2023/03/01 12:23:12;;;;;;;31.10;15.80;;;9.20;51.20;;;;;;5048274;28;20429;-74
2023/03/01 12:25:56;;;;;;;27.97;15.27;;;9.30;50.50;;;;;;5033838;28;20519;-75
2023/03/01 12:28:45;;;;;;;30.50;15.50;;;9.50;50.30;;;;;;5048737;28;20735;-76
2023/03/01 12:31:32;;;;;;;31.07;16.40;;;9.60;49.50;;;;;;5009390;28;20418;-75
2023/03/01 12:34:25;;;;;;;30.67;14.70;;;9.20;49.90;;;;;;5038797;28;20792;-75
2023/03/01 12:37:10;;;;;;;35.20;16.10;;;9.10;50.50;;;;;;5040524;28;20533;-76
2023/03/01 12:39:54;;;;;;;27.90;14.77;;;8.70;51.40;;;;;;5041655;28;20561;-73
2023/03/01 12:42:27;;;;;;;27.60;15.07;;;8.30;52.80;;;;;;5044671;28;20431;-73
2023/03/01 12:45:01;;;;;;;31.70;15.20;;;8.20;53.30;;;;;;5053572;28;20964;-76
2023/03/01 12:47:59;;;;;;;30.87;15.27;;;8.40;53.20;;;;;;5051635;28;20482;-75
2023/03/01 12:50:51;;;;;;;31.00;15.60;;;8.80;52.40;;;;;;5017747;28;20427;-73
2023/03/01 12:53:34;;;;;;;28.00;14.30;;;9.00;51.70;;;;;;5036973;28;20437;-73